sensor_id;sensor_type;location;lat;lon;timestamp;P1;durP1;ratioP1;P2;durP2;ratioP2
7969;SDS011;4030;52.362;9.206;2023-01-01T00:01:13;8.07;;;4.30;;
7969;SDS011;4030;52.362;9.206;2023-01-01T00:03:40;9.30;;;4.28;;
7969;SDS011;4030;52.362;9.206;2023-01-01T00:06:07;6.25;;;4.50;;
7969;SDS011;4030;52.362;9.206;2023-01-01T00:08:37;6.57;;;4.45;;
7969;SDS011;4030;52.362;9.206;2023-01-01T00:11:05;8.25;;;4.60;;
7969;SDS011;4030;52.362;9.206;2023-01-01T00:13:34;7.07;;;4.40;;
7969;SDS011;4030;52.362;9.206;2023-01-01T00:16:06;6.95;;;4.28;;
7969;SDS011;4030;52.362;9.206;2023-01-01T00:18:37;6.05;;;3.72;;
7969;SDS011;4030;52.362;9.206;2023-01-01T00:21:09;8.68;;;4.03;;
7969;SDS011;4030;52.362;9.206;2023-01-01T00:23:38;8.43;;;4.30;;
7969;SDS011;4030;52.362;9.206;2023-01-01T00:26:14;6.47;;;4.00;;
7969;SDS011;4030;52.362;9.206;2023-01-01T00:28:42;7.55;;;4.22;;
7969;SDS011;4030;52.362;9.206;2023-01-01T00:31:10;7.97;;;3.92;;
7969;SDS011;4030;52.362;9.206;2023-01-01T00:33:40;8.45;;;4.15;;
7969;SDS011;4030;52.362;9.206;2023-01-01T00:36:06;7.03;;;4.25;;
7969;SDS011;4030;52.362;9.206;2023-01-01T00:38:40;5.95;;;4.35;;
7969;SDS011;4030;52.362;9.206;2023-01-01T00:41:07;6.43;;;4.03;;
7969;SDS011;4030;52.362;9.206;2023-01-01T00:43:33;6.07;;;3.70;;
7969;SDS011;4030;52.362;9.206;2023-01-01T00:45:59;7.22;;;4.35;;
7969;SDS011;4030;52.362;9.206;2023-01-01T00:48:25;6.93;;;3.95;;
7969;SDS011;4030;52.362;9.206;2023-01-01T00:50:51;6.78;;;3.72;;
7969;SDS011;4030;52.362;9.206;2023-01-01T00:53:18;8.95;;;4.07;;
7969;SDS011;4030;52.362;9.206;2023-01-01T00:55:45;7.70;;;4.22;;
7969;SDS011;4030;52.362;9.206;2023-01-01T00:58:13;8.63;;;4.05;;
7969;SDS011;4030;52.362;9.206;2023-01-01T01:00:41;7.28;;;4.00;;
7969;SDS011;4030;52.362;9.206;2023-01-01T01:03:07;6.50;;;3.80;;
7969;SDS011;4030;52.362;9.206;2023-01-01T01:05:34;5.85;;;3.88;;
7969;SDS011;4030;52.362;9.206;2023-01-01T01:08:02;7.38;;;3.80;;
7969;SDS011;4030;52.362;9.206;2023-01-01T01:10:28;7.82;;;3.75;;
7969;SDS011;4030;52.362;9.206;2023-01-01T01:12:54;7.32;;;3.75;;
7969;SDS011;4030;52.362;9.206;2023-01-01T01:15:20;4.68;;;3.35;;
7969;SDS011;4030;52.362;9.206;2023-01-01T01:17:46;6.47;;;3.28;;
7969;SDS011;4030;52.362;9.206;2023-01-01T01:20:12;5.97;;;3.65;;
7969;SDS011;4030;52.362;9.206;2023-01-01T01:22:38;6.53;;;3.90;;
7969;SDS011;4030;52.362;9.206;2023-01-01T01:25:05;7.70;;;3.58;;
7969;SDS011;4030;52.362;9.206;2023-01-01T01:27:31;5.97;;;3.40;;
7969;SDS011;4030;52.362;9.206;2023-01-01T01:29:57;7.40;;;3.15;;
7969;SDS011;4030;52.362;9.206;2023-01-01T01:32:23;6.70;;;3.42;;
7969;SDS011;4030;52.362;9.206;2023-01-01T01:34:49;5.97;;;3.28;;
7969;SDS011;4030;52.362;9.206;2023-01-01T01:37:14;8.50;;;3.63;;
7969;SDS011;4030;52.362;9.206;2023-01-01T01:39:40;5.22;;;3.70;;
7969;SDS011;4030;52.362;9.206;2023-01-01T01:42:06;5.57;;;4.22;;
7969;SDS011;4030;52.362;9.206;2023-01-01T01:47:48;6.80;;;4.30;;
7969;SDS011;4030;52.362;9.206;2023-01-01T01:50:22;7.80;;;4.10;;
7969;SDS011;4030;52.362;9.206;2023-01-01T01:53:19;6.72;;;4.22;;
7969;SDS011;4030;52.362;9.206;2023-01-01T01:55:58;6.93;;;4.38;;
7969;SDS011;4030;52.362;9.206;2023-01-01T01:58:35;6.05;;;4.18;;
7969;SDS011;4030;52.362;9.206;2023-01-01T02:01:01;6.25;;;4.30;;
7969;SDS011;4030;52.362;9.206;2023-01-01T02:03:32;8.27;;;4.88;;
7969;SDS011;4030;52.362;9.206;2023-01-01T02:06:09;8.45;;;4.30;;
7969;SDS011;4030;52.362;9.206;2023-01-01T02:08:36;8.13;;;4.35;;
7969;SDS011;4030;52.362;9.206;2023-01-01T02:11:01;7.68;;;4.53;;
7969;SDS011;4030;52.362;9.206;2023-01-01T02:13:27;6.47;;;4.38;;
7969;SDS011;4030;52.362;9.206;2023-01-01T02:15:54;9.02;;;4.65;;
7969;SDS011;4030;52.362;9.206;2023-01-01T02:18:38;6.88;;;4.15;;
7969;SDS011;4030;52.362;9.206;2023-01-01T02:21:13;7.40;;;4.50;;
7969;SDS011;4030;52.362;9.206;2023-01-01T02:29:51;7.57;;;4.30;;
7969;SDS011;4030;52.362;9.206;2023-01-01T02:32:35;7.05;;;4.22;;
7969;SDS011;4030;52.362;9.206;2023-01-01T02:35:06;6.43;;;4.30;;
7969;SDS011;4030;52.362;9.206;2023-01-01T02:38:16;8.27;;;4.53;;
7969;SDS011;4030;52.362;9.206;2023-01-01T02:40:47;6.72;;;4.20;;
7969;SDS011;4030;52.362;9.206;2023-01-01T02:43:19;6.18;;;4.10;;
7969;SDS011;4030;52.362;9.206;2023-01-01T02:45:45;7.30;;;4.32;;
7969;SDS011;4030;52.362;9.206;2023-01-01T02:51:08;7.03;;;3.83;;
7969;SDS011;4030;52.362;9.206;2023-01-01T02:53:44;6.32;;;3.88;;
7969;SDS011;4030;52.362;9.206;2023-01-01T02:56:36;5.70;;;3.85;;
7969;SDS011;4030;52.362;9.206;2023-01-01T03:10:40;7.47;;;4.22;;
7969;SDS011;4030;52.362;9.206;2023-01-01T03:16:04;6.35;;;3.90;;
7969;SDS011;4030;52.362;9.206;2023-01-01T03:19:22;4.38;;;3.60;;
7969;SDS011;4030;52.362;9.206;2023-01-01T03:22:16;5.55;;;3.85;;
7969;SDS011;4030;52.362;9.206;2023-01-01T03:25:03;7.30;;;3.63;;
7969;SDS011;4030;52.362;9.206;2023-01-01T03:30:17;6.35;;;3.63;;
7969;SDS011;4030;52.362;9.206;2023-01-01T03:32:52;6.38;;;3.47;;
7969;SDS011;4030;52.362;9.206;2023-01-01T03:35:38;8.05;;;3.47;;
7969;SDS011;4030;52.362;9.206;2023-01-01T03:38:14;6.85;;;3.58;;
7969;SDS011;4030;52.362;9.206;2023-01-01T03:40:45;5.80;;;3.78;;
7969;SDS011;4030;52.362;9.206;2023-01-01T03:43:17;7.85;;;3.38;;
7969;SDS011;4030;52.362;9.206;2023-01-01T03:45:59;5.72;;;3.10;;
7969;SDS011;4030;52.362;9.206;2023-01-01T03:48:28;8.02;;;3.15;;
7969;SDS011;4030;52.362;9.206;2023-01-01T03:51:15;5.75;;;2.90;;
7969;SDS011;4030;52.362;9.206;2023-01-01T03:53:48;6.13;;;3.28;;
7969;SDS011;4030;52.362;9.206;2023-01-01T03:57:00;4.68;;;2.78;;
7969;SDS011;4030;52.362;9.206;2023-01-01T03:59:14;7.30;;;2.85;;
7969;SDS011;4030;52.362;9.206;2023-01-01T04:01:58;5.90;;;2.90;;
7969;SDS011;4030;52.362;9.206;2023-01-01T04:04:28;5.07;;;2.60;;
7969;SDS011;4030;52.362;9.206;2023-01-01T04:06:54;5.88;;;2.67;;
7969;SDS011;4030;52.362;9.206;2023-01-01T04:09:23;4.53;;;2.53;;
7969;SDS011;4030;52.362;9.206;2023-01-01T04:11:54;3.08;;;2.28;;
7969;SDS011;4030;52.362;9.206;2023-01-01T04:14:32;4.53;;;2.33;;
7969;SDS011;4030;52.362;9.206;2023-01-01T04:17:07;3.95;;;2.20;;
7969;SDS011;4030;52.362;9.206;2023-01-01T04:19:34;4.15;;;2.08;;
7969;SDS011;4030;52.362;9.206;2023-01-01T04:22:00;4.75;;;2.42;;
7969;SDS011;4030;52.362;9.206;2023-01-01T04:24:27;4.00;;;2.10;;
7969;SDS011;4030;52.362;9.206;2023-01-01T04:26:53;4.07;;;2.20;;
7969;SDS011;4030;52.362;9.206;2023-01-01T04:29:19;5.55;;;2.53;;
7969;SDS011;4030;52.362;9.206;2023-01-01T04:31:46;4.78;;;2.10;;
7969;SDS011;4030;52.362;9.206;2023-01-01T04:34:12;4.57;;;2.15;;
7969;SDS011;4030;52.362;9.206;2023-01-01T04:36:39;4.13;;;2.05;;
7969;SDS011;4030;52.362;9.206;2023-01-01T04:39:05;3.75;;;2.30;;
7969;SDS011;4030;52.362;9.206;2023-01-01T04:41:30;4.82;;;2.08;;
7969;SDS011;4030;52.362;9.206;2023-01-01T04:43:56;3.78;;;2.10;;
7969;SDS011;4030;52.362;9.206;2023-01-01T04:46:23;3.72;;;1.80;;
7969;SDS011;4030;52.362;9.206;2023-01-01T04:48:49;3.78;;;2.10;;
7969;SDS011;4030;52.362;9.206;2023-01-01T04:51:16;5.18;;;2.20;;
7969;SDS011;4030;52.362;9.206;2023-01-01T04:53:43;5.57;;;2.10;;
7969;SDS011;4030;52.362;9.206;2023-01-01T04:56:16;3.63;;;1.90;;
7969;SDS011;4030;52.362;9.206;2023-01-01T04:58:44;4.40;;;1.90;;
7969;SDS011;4030;52.362;9.206;2023-01-01T05:01:15;3.58;;;2.00;;
7969;SDS011;4030;52.362;9.206;2023-01-01T05:03:45;3.85;;;2.10;;
7969;SDS011;4030;52.362;9.206;2023-01-01T05:06:11;4.07;;;1.95;;
7969;SDS011;4030;52.362;9.206;2023-01-01T05:08:39;3.25;;;1.60;;
7969;SDS011;4030;52.362;9.206;2023-01-01T05:11:14;2.35;;;1.60;;
7969;SDS011;4030;52.362;9.206;2023-01-01T05:13:42;3.95;;;1.90;;
7969;SDS011;4030;52.362;9.206;2023-01-01T05:16:10;4.72;;;1.98;;
7969;SDS011;4030;52.362;9.206;2023-01-01T05:18:39;5.13;;;2.03;;
7969;SDS011;4030;52.362;9.206;2023-01-01T05:21:07;3.35;;;1.83;;
7969;SDS011;4030;52.362;9.206;2023-01-01T05:23:56;5.53;;;2.00;;
7969;SDS011;4030;52.362;9.206;2023-01-01T05:26:25;3.08;;;1.70;;
7969;SDS011;4030;52.362;9.206;2023-01-01T05:28:54;2.33;;;1.65;;
7969;SDS011;4030;52.362;9.206;2023-01-01T05:31:22;2.40;;;1.50;;
7969;SDS011;4030;52.362;9.206;2023-01-01T05:33:51;2.40;;;1.58;;
7969;SDS011;4030;52.362;9.206;2023-01-01T05:36:18;2.60;;;1.70;;
7969;SDS011;4030;52.362;9.206;2023-01-01T05:38:47;3.17;;;1.70;;
7969;SDS011;4030;52.362;9.206;2023-01-01T05:41:13;2.47;;;1.38;;
7969;SDS011;4030;52.362;9.206;2023-01-01T05:43:40;2.45;;;1.55;;
7969;SDS011;4030;52.362;9.206;2023-01-01T05:46:09;3.83;;;1.52;;
7969;SDS011;4030;52.362;9.206;2023-01-01T05:48:46;3.00;;;1.70;;
7969;SDS011;4030;52.362;9.206;2023-01-01T05:51:15;3.05;;;1.63;;
7969;SDS011;4030;52.362;9.206;2023-01-01T05:53:46;2.63;;;1.30;;
7969;SDS011;4030;52.362;9.206;2023-01-01T05:56:13;2.35;;;1.30;;
7969;SDS011;4030;52.362;9.206;2023-01-01T05:58:40;2.13;;;1.30;;
7969;SDS011;4030;52.362;9.206;2023-01-01T06:01:07;2.42;;;1.30;;
7969;SDS011;4030;52.362;9.206;2023-01-01T06:03:35;2.83;;;1.60;;
7969;SDS011;4030;52.362;9.206;2023-01-01T06:06:04;3.90;;;1.50;;
7969;SDS011;4030;52.362;9.206;2023-01-01T06:08:38;2.75;;;1.40;;
7969;SDS011;4030;52.362;9.206;2023-01-01T06:11:06;3.33;;;1.30;;
7969;SDS011;4030;52.362;9.206;2023-01-01T06:13:35;2.83;;;1.40;;
7969;SDS011;4030;52.362;9.206;2023-01-01T06:16:01;3.05;;;1.20;;
7969;SDS011;4030;52.362;9.206;2023-01-01T06:18:28;3.60;;;1.40;;
7969;SDS011;4030;52.362;9.206;2023-01-01T06:21:29;2.72;;;1.40;;
7969;SDS011;4030;52.362;9.206;2023-01-01T06:23:49;3.22;;;1.27;;
7969;SDS011;4030;52.362;9.206;2023-01-01T06:26:21;2.92;;;1.33;;
7969;SDS011;4030;52.362;9.206;2023-01-01T06:28:49;3.50;;;1.25;;
7969;SDS011;4030;52.362;9.206;2023-01-01T06:31:17;2.70;;;1.27;;
7969;SDS011;4030;52.362;9.206;2023-01-01T06:33:45;2.17;;;1.02;;
7969;SDS011;4030;52.362;9.206;2023-01-01T06:36:13;2.65;;;1.10;;
7969;SDS011;4030;52.362;9.206;2023-01-01T06:38:42;3.75;;;1.40;;
7969;SDS011;4030;52.362;9.206;2023-01-01T06:41:11;2.53;;;1.38;;
7969;SDS011;4030;52.362;9.206;2023-01-01T06:43:39;3.13;;;1.30;;
7969;SDS011;4030;52.362;9.206;2023-01-01T06:48:36;2.85;;;1.42;;
7969;SDS011;4030;52.362;9.206;2023-01-01T06:51:06;3.20;;;1.52;;
7969;SDS011;4030;52.362;9.206;2023-01-01T06:53:35;2.75;;;1.20;;
7969;SDS011;4030;52.362;9.206;2023-01-01T06:56:00;2.70;;;1.20;;
7969;SDS011;4030;52.362;9.206;2023-01-01T06:58:27;3.75;;;1.30;;
7969;SDS011;4030;52.362;9.206;2023-01-01T07:00:52;2.97;;;1.30;;
7969;SDS011;4030;52.362;9.206;2023-01-01T07:03:18;3.35;;;1.20;;
7969;SDS011;4030;52.362;9.206;2023-01-01T07:05:44;2.63;;;1.30;;
7969;SDS011;4030;52.362;9.206;2023-01-01T07:08:10;1.85;;;1.02;;
7969;SDS011;4030;52.362;9.206;2023-01-01T07:10:36;1.45;;;0.98;;
7969;SDS011;4030;52.362;9.206;2023-01-01T07:13:02;2.30;;;1.30;;
7969;SDS011;4030;52.362;9.206;2023-01-01T07:15:28;2.20;;;1.20;;
7969;SDS011;4030;52.362;9.206;2023-01-01T07:17:55;3.38;;;1.15;;
7969;SDS011;4030;52.362;9.206;2023-01-01T07:20:21;2.80;;;1.30;;
7969;SDS011;4030;52.362;9.206;2023-01-01T07:22:47;3.05;;;1.33;;
7969;SDS011;4030;52.362;9.206;2023-01-01T07:25:13;1.90;;;1.30;;
7969;SDS011;4030;52.362;9.206;2023-01-01T07:27:40;1.98;;;1.17;;
7969;SDS011;4030;52.362;9.206;2023-01-01T07:30:06;2.97;;;1.42;;
7969;SDS011;4030;52.362;9.206;2023-01-01T07:32:33;4.05;;;1.40;;
7969;SDS011;4030;52.362;9.206;2023-01-01T07:34:59;2.42;;;1.40;;
7969;SDS011;4030;52.362;9.206;2023-01-01T07:37:25;3.53;;;1.45;;
7969;SDS011;4030;52.362;9.206;2023-01-01T07:39:51;1.58;;;1.00;;
7969;SDS011;4030;52.362;9.206;2023-01-01T07:42:17;1.85;;;0.90;;
7969;SDS011;4030;52.362;9.206;2023-01-01T07:44:43;2.25;;;1.30;;
7969;SDS011;4030;52.362;9.206;2023-01-01T07:47:17;2.80;;;1.10;;
7969;SDS011;4030;52.362;9.206;2023-01-01T07:49:46;2.38;;;1.02;;
7969;SDS011;4030;52.362;9.206;2023-01-01T07:52:12;3.22;;;1.20;;
7969;SDS011;4030;52.362;9.206;2023-01-01T07:54:38;3.72;;;1.10;;
7969;SDS011;4030;52.362;9.206;2023-01-01T07:57:04;2.85;;;1.00;;
7969;SDS011;4030;52.362;9.206;2023-01-01T07:59:30;2.30;;;1.30;;
7969;SDS011;4030;52.362;9.206;2023-01-01T08:01:56;3.00;;;1.10;;
7969;SDS011;4030;52.362;9.206;2023-01-01T08:04:22;1.67;;;0.98;;
7969;SDS011;4030;52.362;9.206;2023-01-01T08:06:48;3.20;;;1.23;;
7969;SDS011;4030;52.362;9.206;2023-01-01T08:09:14;1.85;;;1.23;;
7969;SDS011;4030;52.362;9.206;2023-01-01T08:11:40;2.15;;;1.35;;
7969;SDS011;4030;52.362;9.206;2023-01-01T08:14:06;2.22;;;1.20;;
7969;SDS011;4030;52.362;9.206;2023-01-01T08:16:32;5.68;;;1.30;;
7969;SDS011;4030;52.362;9.206;2023-01-01T08:18:58;2.92;;;1.13;;
7969;SDS011;4030;52.362;9.206;2023-01-01T08:21:24;2.33;;;1.30;;
7969;SDS011;4030;52.362;9.206;2023-01-01T08:23:50;2.85;;;1.45;;
7969;SDS011;4030;52.362;9.206;2023-01-01T08:26:16;2.83;;;1.50;;
7969;SDS011;4030;52.362;9.206;2023-01-01T08:28:52;2.63;;;1.25;;
7969;SDS011;4030;52.362;9.206;2023-01-01T08:31:17;2.08;;;0.98;;
7969;SDS011;4030;52.362;9.206;2023-01-01T08:33:43;2.75;;;1.10;;
7969;SDS011;4030;52.362;9.206;2023-01-01T08:36:09;2.17;;;1.23;;
7969;SDS011;4030;52.362;9.206;2023-01-01T08:38:38;2.75;;;1.40;;
7969;SDS011;4030;52.362;9.206;2023-01-01T08:41:04;4.40;;;1.42;;
7969;SDS011;4030;52.362;9.206;2023-01-01T08:43:30;2.92;;;1.23;;
7969;SDS011;4030;52.362;9.206;2023-01-01T08:45:55;5.00;;;1.63;;
7969;SDS011;4030;52.362;9.206;2023-01-01T08:48:21;3.85;;;1.23;;
7969;SDS011;4030;52.362;9.206;2023-01-01T08:50:53;3.00;;;1.20;;
7969;SDS011;4030;52.362;9.206;2023-01-01T08:53:21;2.63;;;1.42;;
7969;SDS011;4030;52.362;9.206;2023-01-01T08:58:44;4.55;;;1.52;;
7969;SDS011;4030;52.362;9.206;2023-01-01T09:01:10;2.75;;;1.35;;
7969;SDS011;4030;52.362;9.206;2023-01-01T09:03:36;2.60;;;1.30;;
7969;SDS011;4030;52.362;9.206;2023-01-01T09:06:02;2.83;;;1.30;;
7969;SDS011;4030;52.362;9.206;2023-01-01T09:08:28;2.22;;;1.33;;
7969;SDS011;4030;52.362;9.206;2023-01-01T09:11:01;3.10;;;1.25;;
7969;SDS011;4030;52.362;9.206;2023-01-01T09:13:28;3.78;;;1.58;;
7969;SDS011;4030;52.362;9.206;2023-01-01T09:15:54;2.22;;;1.05;;
7969;SDS011;4030;52.362;9.206;2023-01-01T09:18:20;3.05;;;1.38;;
7969;SDS011;4030;52.362;9.206;2023-01-01T09:20:46;3.33;;;1.27;;
7969;SDS011;4030;52.362;9.206;2023-01-01T09:23:12;1.50;;;1.10;;
7969;SDS011;4030;52.362;9.206;2023-01-01T09:25:38;4.18;;;1.60;;
7969;SDS011;4030;52.362;9.206;2023-01-01T09:28:05;1.50;;;1.02;;
7969;SDS011;4030;52.362;9.206;2023-01-01T09:30:34;2.42;;;1.50;;
7969;SDS011;4030;52.362;9.206;2023-01-01T09:33:01;2.17;;;1.20;;
7969;SDS011;4030;52.362;9.206;2023-01-01T09:35:27;2.20;;;1.10;;
7969;SDS011;4030;52.362;9.206;2023-01-01T09:37:54;2.90;;;1.58;;
7969;SDS011;4030;52.362;9.206;2023-01-01T09:43:16;2.85;;;1.35;;
7969;SDS011;4030;52.362;9.206;2023-01-01T09:46:05;3.38;;;1.58;;
7969;SDS011;4030;52.362;9.206;2023-01-01T09:48:32;3.15;;;1.30;;
7969;SDS011;4030;52.362;9.206;2023-01-01T09:51:01;3.25;;;1.15;;
7969;SDS011;4030;52.362;9.206;2023-01-01T09:56:04;4.28;;;1.38;;
7969;SDS011;4030;52.362;9.206;2023-01-01T09:58:35;3.63;;;1.40;;
7969;SDS011;4030;52.362;9.206;2023-01-01T10:01:08;4.80;;;1.27;;
7969;SDS011;4030;52.362;9.206;2023-01-01T10:03:44;2.63;;;1.40;;
7969;SDS011;4030;52.362;9.206;2023-01-01T10:07:02;2.88;;;1.30;;
7969;SDS011;4030;52.362;9.206;2023-01-01T10:15:58;2.42;;;1.20;;
7969;SDS011;4030;52.362;9.206;2023-01-01T10:21:48;2.83;;;0.98;;
7969;SDS011;4030;52.362;9.206;2023-01-01T10:27:08;2.28;;;1.20;;
7969;SDS011;4030;52.362;9.206;2023-01-01T10:29:49;1.52;;;1.05;;
7969;SDS011;4030;52.362;9.206;2023-01-01T10:32:21;2.35;;;1.20;;
7969;SDS011;4030;52.362;9.206;2023-01-01T10:35:00;3.63;;;1.20;;
7969;SDS011;4030;52.362;9.206;2023-01-01T10:37:40;1.95;;;1.10;;
7969;SDS011;4030;52.362;9.206;2023-01-01T10:40:12;3.25;;;1.20;;
7969;SDS011;4030;52.362;9.206;2023-01-01T10:42:46;1.98;;;1.10;;
7969;SDS011;4030;52.362;9.206;2023-01-01T10:45:18;2.08;;;1.20;;
7969;SDS011;4030;52.362;9.206;2023-01-01T10:51:01;1.92;;;1.10;;
7969;SDS011;4030;52.362;9.206;2023-01-01T10:53:33;3.78;;;1.20;;
7969;SDS011;4030;52.362;9.206;2023-01-01T10:56:04;3.08;;;1.20;;
7969;SDS011;4030;52.362;9.206;2023-01-01T10:58:43;2.65;;;1.30;;
7969;SDS011;4030;52.362;9.206;2023-01-01T11:01:29;2.03;;;1.30;;
7969;SDS011;4030;52.362;9.206;2023-01-01T11:06:41;4.13;;;1.67;;
7969;SDS011;4030;52.362;9.206;2023-01-01T11:09:29;3.17;;;1.17;;
7969;SDS011;4030;52.362;9.206;2023-01-01T11:12:01;1.88;;;1.20;;
7969;SDS011;4030;52.362;9.206;2023-01-01T11:17:03;3.25;;;1.52;;
7969;SDS011;4030;52.362;9.206;2023-01-01T11:19:29;2.97;;;1.40;;
7969;SDS011;4030;52.362;9.206;2023-01-01T11:21:58;2.95;;;1.20;;
7969;SDS011;4030;52.362;9.206;2023-01-01T11:24:28;2.00;;;1.13;;
7969;SDS011;4030;52.362;9.206;2023-01-01T11:27:23;2.40;;;1.30;;
7969;SDS011;4030;52.362;9.206;2023-01-01T11:29:49;2.25;;;1.23;;
7969;SDS011;4030;52.362;9.206;2023-01-01T11:32:21;2.53;;;1.30;;
7969;SDS011;4030;52.362;9.206;2023-01-01T11:34:58;3.90;;;1.20;;
7969;SDS011;4030;52.362;9.206;2023-01-01T11:37:31;2.58;;;1.35;;
7969;SDS011;4030;52.362;9.206;2023-01-01T11:40:03;2.13;;;1.02;;
7969;SDS011;4030;52.362;9.206;2023-01-01T11:42:41;2.03;;;1.10;;
7969;SDS011;4030;52.362;9.206;2023-01-01T11:45:18;1.92;;;1.10;;
7969;SDS011;4030;52.362;9.206;2023-01-01T11:47:55;2.90;;;1.10;;
7969;SDS011;4030;52.362;9.206;2023-01-01T11:50:33;1.92;;;1.30;;
7969;SDS011;4030;52.362;9.206;2023-01-01T12:01:14;1.05;;;0.80;;
7969;SDS011;4030;52.362;9.206;2023-01-01T12:04:19;2.20;;;1.05;;
7969;SDS011;4030;52.362;9.206;2023-01-01T12:07:14;2.05;;;1.10;;
7969;SDS011;4030;52.362;9.206;2023-01-01T12:15:19;1.35;;;0.90;;
7969;SDS011;4030;52.362;9.206;2023-01-01T12:21:06;1.42;;;0.95;;
7969;SDS011;4030;52.362;9.206;2023-01-01T12:23:41;2.60;;;1.23;;
7969;SDS011;4030;52.362;9.206;2023-01-01T12:41:03;1.98;;;1.08;;
7969;SDS011;4030;52.362;9.206;2023-01-01T12:55:35;1.63;;;1.08;;
7969;SDS011;4030;52.362;9.206;2023-01-01T12:58:18;2.08;;;1.17;;
7969;SDS011;4030;52.362;9.206;2023-01-01T13:00:58;2.90;;;1.55;;
7969;SDS011;4030;52.362;9.206;2023-01-01T13:03:32;3.65;;;1.90;;
7969;SDS011;4030;52.362;9.206;2023-01-01T13:06:19;2.38;;;1.67;;
7969;SDS011;4030;52.362;9.206;2023-01-01T13:09:29;2.13;;;1.75;;
7969;SDS011;4030;52.362;9.206;2023-01-01T13:11:59;2.95;;;1.98;;
7969;SDS011;4030;52.362;9.206;2023-01-01T13:14:36;3.20;;;1.95;;
7969;SDS011;4030;52.362;9.206;2023-01-01T13:17:03;3.72;;;2.15;;
7969;SDS011;4030;52.362;9.206;2023-01-01T13:19:35;3.03;;;2.17;;
7969;SDS011;4030;52.362;9.206;2023-01-01T13:41:40;2.88;;;1.83;;
7969;SDS011;4030;52.362;9.206;2023-01-01T13:44:10;3.35;;;1.90;;
7969;SDS011;4030;52.362;9.206;2023-01-01T13:50:13;4.57;;;2.20;;
7969;SDS011;4030;52.362;9.206;2023-01-01T13:53:22;4.38;;;1.70;;
7969;SDS011;4030;52.362;9.206;2023-01-01T13:59:12;3.42;;;2.00;;
7969;SDS011;4030;52.362;9.206;2023-01-01T14:07:30;4.25;;;2.15;;
7969;SDS011;4030;52.362;9.206;2023-01-01T14:12:53;3.30;;;2.08;;
7969;SDS011;4030;52.362;9.206;2023-01-01T14:15:41;6.13;;;2.33;;
7969;SDS011;4030;52.362;9.206;2023-01-01T14:18:19;3.30;;;2.10;;
7969;SDS011;4030;52.362;9.206;2023-01-01T14:20:53;4.70;;;2.15;;
7969;SDS011;4030;52.362;9.206;2023-01-01T14:23:34;3.13;;;2.28;;
7969;SDS011;4030;52.362;9.206;2023-01-01T14:26:05;3.55;;;2.17;;
7969;SDS011;4030;52.362;9.206;2023-01-01T14:28:36;3.95;;;2.45;;
7969;SDS011;4030;52.362;9.206;2023-01-01T14:31:09;4.57;;;2.33;;
7969;SDS011;4030;52.362;9.206;2023-01-01T14:33:47;3.92;;;2.22;;
7969;SDS011;4030;52.362;9.206;2023-01-01T14:36:19;3.05;;;2.25;;
7969;SDS011;4030;52.362;9.206;2023-01-01T14:38:54;5.32;;;2.10;;
7969;SDS011;4030;52.362;9.206;2023-01-01T14:41:33;4.55;;;2.28;;
7969;SDS011;4030;52.362;9.206;2023-01-01T14:46:38;4.03;;;2.28;;
7969;SDS011;4030;52.362;9.206;2023-01-01T14:49:08;3.45;;;2.25;;
7969;SDS011;4030;52.362;9.206;2023-01-01T14:51:39;4.25;;;2.50;;
7969;SDS011;4030;52.362;9.206;2023-01-01T14:54:10;2.72;;;2.15;;
7969;SDS011;4030;52.362;9.206;2023-01-01T14:56:42;5.07;;;2.22;;
7969;SDS011;4030;52.362;9.206;2023-01-01T15:04:36;3.42;;;1.90;;
7969;SDS011;4030;52.362;9.206;2023-01-01T15:07:02;3.97;;;2.40;;
7969;SDS011;4030;52.362;9.206;2023-01-01T15:09:29;4.32;;;2.25;;
7969;SDS011;4030;52.362;9.206;2023-01-01T15:11:56;4.50;;;2.20;;
7969;SDS011;4030;52.362;9.206;2023-01-01T15:14:30;4.28;;;2.15;;
7969;SDS011;4030;52.362;9.206;2023-01-01T15:17:03;3.50;;;2.05;;
7969;SDS011;4030;52.362;9.206;2023-01-01T15:19:30;3.63;;;2.20;;
7969;SDS011;4030;52.362;9.206;2023-01-01T15:21:56;3.63;;;2.03;;
7969;SDS011;4030;52.362;9.206;2023-01-01T15:24:22;3.95;;;2.30;;
7969;SDS011;4030;52.362;9.206;2023-01-01T15:29:28;3.88;;;2.25;;
7969;SDS011;4030;52.362;9.206;2023-01-01T15:32:00;3.70;;;2.28;;
7969;SDS011;4030;52.362;9.206;2023-01-01T15:34:30;3.78;;;2.35;;
7969;SDS011;4030;52.362;9.206;2023-01-01T15:37:07;3.83;;;2.40;;
7969;SDS011;4030;52.362;9.206;2023-01-01T15:40:46;3.83;;;1.90;;
7969;SDS011;4030;52.362;9.206;2023-01-01T15:43:04;3.47;;;2.13;;
7969;SDS011;4030;52.362;9.206;2023-01-01T15:45:50;2.95;;;2.15;;
7969;SDS011;4030;52.362;9.206;2023-01-01T15:48:18;3.67;;;2.20;;
7969;SDS011;4030;52.362;9.206;2023-01-01T15:51:02;4.63;;;2.10;;
7969;SDS011;4030;52.362;9.206;2023-01-01T15:56:22;3.95;;;2.60;;
7969;SDS011;4030;52.362;9.206;2023-01-01T15:58:57;4.10;;;3.00;;
7969;SDS011;4030;52.362;9.206;2023-01-01T16:01:41;3.42;;;2.60;;
7969;SDS011;4030;52.362;9.206;2023-01-01T16:04:08;4.20;;;3.17;;
7969;SDS011;4030;52.362;9.206;2023-01-01T16:06:50;4.07;;;3.20;;
7969;SDS011;4030;52.362;9.206;2023-01-01T16:09:18;5.05;;;3.25;;
7969;SDS011;4030;52.362;9.206;2023-01-01T16:11:45;4.28;;;3.25;;
7969;SDS011;4030;52.362;9.206;2023-01-01T16:14:18;3.75;;;3.15;;
7969;SDS011;4030;52.362;9.206;2023-01-01T16:16:45;4.93;;;3.70;;
7969;SDS011;4030;52.362;9.206;2023-01-01T16:19:20;4.97;;;3.83;;
7969;SDS011;4030;52.362;9.206;2023-01-01T16:21:47;6.20;;;3.60;;
7969;SDS011;4030;52.362;9.206;2023-01-01T16:24:13;4.53;;;3.50;;
7969;SDS011;4030;52.362;9.206;2023-01-01T16:26:40;3.92;;;3.03;;
7969;SDS011;4030;52.362;9.206;2023-01-01T16:29:06;3.50;;;3.20;;
7969;SDS011;4030;52.362;9.206;2023-01-01T16:31:33;5.07;;;3.70;;
7969;SDS011;4030;52.362;9.206;2023-01-01T16:33:59;5.80;;;3.60;;
7969;SDS011;4030;52.362;9.206;2023-01-01T16:36:25;4.97;;;3.22;;
7969;SDS011;4030;52.362;9.206;2023-01-01T16:38:57;6.00;;;3.70;;
7969;SDS011;4030;52.362;9.206;2023-01-01T16:41:23;5.53;;;3.30;;
7969;SDS011;4030;52.362;9.206;2023-01-01T16:43:52;4.43;;;3.28;;
7969;SDS011;4030;52.362;9.206;2023-01-01T16:46:18;4.07;;;3.00;;
7969;SDS011;4030;52.362;9.206;2023-01-01T16:48:44;4.20;;;3.10;;
7969;SDS011;4030;52.362;9.206;2023-01-01T16:51:17;5.65;;;3.38;;
7969;SDS011;4030;52.362;9.206;2023-01-01T16:53:47;4.25;;;2.95;;
7969;SDS011;4030;52.362;9.206;2023-01-01T16:56:13;6.15;;;3.13;;
7969;SDS011;4030;52.362;9.206;2023-01-01T16:58:39;4.65;;;2.95;;
7969;SDS011;4030;52.362;9.206;2023-01-01T17:01:05;4.43;;;2.80;;
7969;SDS011;4030;52.362;9.206;2023-01-01T17:03:31;5.35;;;3.15;;
7969;SDS011;4030;52.362;9.206;2023-01-01T17:05:57;5.20;;;2.97;;
7969;SDS011;4030;52.362;9.206;2023-01-01T17:08:26;5.28;;;3.03;;
7969;SDS011;4030;52.362;9.206;2023-01-01T17:11:00;4.35;;;3.10;;
7969;SDS011;4030;52.362;9.206;2023-01-01T17:13:31;5.93;;;3.10;;
7969;SDS011;4030;52.362;9.206;2023-01-01T17:15:59;3.97;;;2.95;;
7969;SDS011;4030;52.362;9.206;2023-01-01T17:18:26;3.92;;;3.13;;
7969;SDS011;4030;52.362;9.206;2023-01-01T17:20:52;3.78;;;3.03;;
7969;SDS011;4030;52.362;9.206;2023-01-01T17:23:18;10.90;;;5.05;;
7969;SDS011;4030;52.362;9.206;2023-01-01T17:25:43;10.18;;;7.07;;
7969;SDS011;4030;52.362;9.206;2023-01-01T17:28:09;13.55;;;8.00;;
7969;SDS011;4030;52.362;9.206;2023-01-01T17:30:35;11.57;;;6.72;;
7969;SDS011;4030;52.362;9.206;2023-01-01T17:33:01;8.02;;;6.13;;
7969;SDS011;4030;52.362;9.206;2023-01-01T17:35:27;8.60;;;6.10;;
7969;SDS011;4030;52.362;9.206;2023-01-01T17:37:54;10.30;;;4.97;;
7969;SDS011;4030;52.362;9.206;2023-01-01T17:40:20;9.63;;;5.10;;
7969;SDS011;4030;52.362;9.206;2023-01-01T17:42:45;10.88;;;5.13;;
7969;SDS011;4030;52.362;9.206;2023-01-01T17:45:11;7.70;;;4.82;;
7969;SDS011;4030;52.362;9.206;2023-01-01T17:47:37;7.60;;;4.45;;
7969;SDS011;4030;52.362;9.206;2023-01-01T17:50:03;5.15;;;3.88;;
7969;SDS011;4030;52.362;9.206;2023-01-01T17:52:30;6.20;;;4.30;;
7969;SDS011;4030;52.362;9.206;2023-01-01T17:54:55;6.10;;;4.22;;
7969;SDS011;4030;52.362;9.206;2023-01-01T17:57:21;6.10;;;3.60;;
7969;SDS011;4030;52.362;9.206;2023-01-01T17:59:49;5.70;;;3.75;;
7969;SDS011;4030;52.362;9.206;2023-01-01T18:02:14;5.88;;;3.30;;
7969;SDS011;4030;52.362;9.206;2023-01-01T18:04:40;6.70;;;3.70;;
7969;SDS011;4030;52.362;9.206;2023-01-01T18:07:06;7.88;;;3.40;;
7969;SDS011;4030;52.362;9.206;2023-01-01T18:09:32;6.78;;;3.38;;
7969;SDS011;4030;52.362;9.206;2023-01-01T18:11:58;7.47;;;3.10;;